createdAt,value
2019-04-14T00:00:03.571Z,27.23
2019-04-14T00:01:43.305Z,28.20
2019-04-14T00:02:55.720Z,30.87
2019-04-14T00:04:11.513Z,29.90
2019-04-14T00:05:16.986Z,29.30
2019-04-14T00:06:22.455Z,27.90
2019-04-14T00:07:27.709Z,27.95
2019-04-14T00:08:34.824Z,29.13
2019-04-14T00:09:40.186Z,26.85
2019-04-14T00:10:46.404Z,30.85
2019-04-14T00:11:52.704Z,28.25
2019-04-14T00:12:58.068Z,29.57
2019-04-14T00:14:03.247Z,29.82
2019-04-14T00:15:21.122Z,28.77
2019-04-14T00:16:18.503Z,28.23
2019-04-14T00:17:23.834Z,29.50
2019-04-14T00:18:29.446Z,28.23
2019-04-14T00:19:34.891Z,28.63
2019-04-14T00:20:40.490Z,27.27
2019-04-14T00:21:45.844Z,31.43
2019-04-14T00:22:51.304Z,29.27
2019-04-14T00:23:56.650Z,29.35
2019-04-14T00:25:02.376Z,29.37
2019-04-14T00:26:29.467Z,30.37
2019-04-14T00:27:34.864Z,28.40
2019-04-14T00:28:40.428Z,35.23
2019-04-14T00:29:45.817Z,30.23
2019-04-14T00:30:51.272Z,28.45
2019-04-14T00:31:57.015Z,33.43
2019-04-14T00:33:04.147Z,30.50
2019-04-14T00:34:33.092Z,32.40
2019-04-14T00:35:53.978Z,31.67
2019-04-14T00:37:18.222Z,28.97
2019-04-14T00:38:32.611Z,32.43
2019-04-14T00:39:42.232Z,32.88
2019-04-14T00:40:56.057Z,33.90
2019-04-14T00:42:19.867Z,33.77
2019-04-14T00:43:44.187Z,31.80
2019-04-14T00:45:09.127Z,33.95
2019-04-14T00:46:18.997Z,34.73
2019-04-14T00:47:35.296Z,34.47
2019-04-14T00:48:41.041Z,35.70
2019-04-14T00:49:46.361Z,36.55
2019-04-14T00:50:51.794Z,33.75
2019-04-14T00:51:57.149Z,35.70
2019-04-14T00:53:03.502Z,37.53
2019-04-14T00:54:09.219Z,39.07
2019-04-14T00:55:14.329Z,38.78
2019-04-14T00:56:19.530Z,34.83
2019-04-14T00:57:24.783Z,34.80
2019-04-14T00:58:31.970Z,38.03
2019-04-14T00:59:37.605Z,36.90
2019-04-14T01:00:43.028Z,37.23
2019-04-14T01:01:48.445Z,33.60
2019-04-14T01:02:53.726Z,36.67
2019-04-14T01:03:59.153Z,37.90
2019-04-14T01:05:04.556Z,36.33
2019-04-14T01:06:09.946Z,37.03
2019-04-14T01:07:15.220Z,36.17
2019-04-14T01:08:20.618Z,39.77
2019-04-14T01:09:26.162Z,33.70
2019-04-14T01:10:32.205Z,37.20
2019-04-14T01:11:37.878Z,37.43
2019-04-14T01:12:43.366Z,37.13
2019-04-14T01:13:48.669Z,36.20
2019-04-14T01:14:53.963Z,37.50
2019-04-14T01:16:07.275Z,38.07
2019-04-14T01:17:06.911Z,36.13
2019-04-14T01:18:12.589Z,35.67
2019-04-14T01:19:17.809Z,35.40
2019-04-14T01:20:23.218Z,33.83
2019-04-14T01:21:28.573Z,35.77
2019-04-14T01:22:33.728Z,38.57
2019-04-14T01:23:39.184Z,35.77
2019-04-14T01:24:44.721Z,38.87
2019-04-14T01:25:49.986Z,33.90
2019-04-14T01:26:55.149Z,38.35
2019-04-14T01:28:00.365Z,34.37
2019-04-14T01:29:06.479Z,34.40
2019-04-14T01:30:11.752Z,33.27
2019-04-14T01:31:16.814Z,33.67
2019-04-14T01:32:21.932Z,34.80
2019-04-14T01:33:27.286Z,33.87
2019-04-14T01:34:32.519Z,37.87
2019-04-14T01:35:37.911Z,32.63
2019-04-14T01:36:43.314Z,34.10
2019-04-14T01:37:48.680Z,35.63
2019-04-14T01:38:54.088Z,39.43
2019-04-14T01:39:59.291Z,35.63
2019-04-14T01:41:04.527Z,33.90
2019-04-14T01:42:09.659Z,34.47
2019-04-14T01:43:14.928Z,31.00
2019-04-14T01:44:20.156Z,32.67
2019-04-14T01:45:27.432Z,33.97
2019-04-14T01:46:34.360Z,34.90
2019-04-14T01:47:39.938Z,34.37
2019-04-14T01:48:45.411Z,33.40
2019-04-14T01:49:50.864Z,34.27
2019-04-14T01:51:14.179Z,34.03
2019-04-14T01:52:34.610Z,34.77
2019-04-14T01:53:47.093Z,33.00
2019-04-14T01:55:17.750Z,31.43
2019-04-14T01:56:38.414Z,32.00
2019-04-14T01:58:12.252Z,34.03
2019-04-14T01:59:17.509Z,29.27
2019-04-14T02:00:44.476Z,32.33
2019-04-14T02:01:50.110Z,31.57
2019-04-14T02:02:55.414Z,32.43
2019-04-14T02:04:00.713Z,34.07
2019-04-14T02:05:06.070Z,31.60
2019-04-14T02:06:11.477Z,34.10
2019-04-14T02:07:16.690Z,34.30
2019-04-14T02:08:22.030Z,32.93
2019-04-14T02:09:29.476Z,36.73
2019-04-14T02:10:34.830Z,34.50
2019-04-14T02:11:40.067Z,32.97
2019-04-14T02:12:45.296Z,33.50
2019-04-14T02:13:50.850Z,32.33
2019-04-14T02:14:56.334Z,34.00
2019-04-14T02:16:13.045Z,32.87
2019-04-14T02:17:09.481Z,34.53
2019-04-14T02:18:16.278Z,36.97
2019-04-14T02:19:22.044Z,35.73
2019-04-14T02:20:27.265Z,32.47
2019-04-14T02:21:32.467Z,33.60
2019-04-14T02:22:37.676Z,32.17
2019-04-14T02:23:43.344Z,30.20
2019-04-14T02:24:48.651Z,30.97
2019-04-14T02:25:53.861Z,34.60
2019-04-14T02:26:59.164Z,35.40
2019-04-14T02:28:04.768Z,33.48
2019-04-14T02:29:09.994Z,33.87
2019-04-14T02:30:20.223Z,31.55
2019-04-14T02:31:46.778Z,33.65
2019-04-14T02:33:00.377Z,35.57
2019-04-14T02:33:58.273Z,32.38
2019-04-14T02:35:13.256Z,35.33
2019-04-14T02:36:27.972Z,35.52
2019-04-14T02:37:26.027Z,30.83
2019-04-14T02:38:41.209Z,30.95
2019-04-14T02:39:38.644Z,33.30
2019-04-14T02:40:49.206Z,33.43
2019-04-14T02:42:04.835Z,29.80
2019-04-14T02:42:58.191Z,30.70
2019-04-14T02:44:09.785Z,35.80
2019-04-14T02:45:10.465Z,33.37
2019-04-14T02:46:28.593Z,30.50
2019-04-14T02:49:44.029Z,30.70
2019-04-14T02:50:37.165Z,31.87
2019-04-14T02:51:52.040Z,33.98
2019-04-14T02:53:01.948Z,31.57
2019-04-14T02:54:07.227Z,33.25
2019-04-14T02:55:10.673Z,31.12
2019-04-14T02:56:21.469Z,32.17
2019-04-14T02:57:25.702Z,30.88
2019-04-14T02:58:36.246Z,32.33
2019-04-14T03:00:48.721Z,31.82
2019-04-14T03:02:09.776Z,34.00
2019-04-14T03:02:56.457Z,33.80
2019-04-14T03:04:05.907Z,35.05
2019-04-14T03:05:11.991Z,33.35
2019-04-14T03:06:20.472Z,33.20
2019-04-14T03:07:34.178Z,32.17
2019-04-14T03:08:45.277Z,34.98
2019-04-14T03:09:42.403Z,33.80
2019-04-14T03:10:51.887Z,33.70
2019-04-14T03:11:51.886Z,37.73
2019-04-14T03:13:05.640Z,33.77
2019-04-14T03:14:09.481Z,35.00
2019-04-14T03:15:17.028Z,35.15
2019-04-14T03:16:23.308Z,31.95
2019-04-14T03:17:43.344Z,32.93
2019-04-14T03:18:58.265Z,33.20
2019-04-14T03:20:39.595Z,37.28
2019-04-14T03:22:03.272Z,35.83
2019-04-14T03:23:13.322Z,33.18
2019-04-14T03:24:32.789Z,32.73
2019-04-14T03:25:43.004Z,34.43
2019-04-14T03:27:13.650Z,33.88
2019-04-14T03:28:38.527Z,33.58
2019-04-14T03:32:10.771Z,34.45
2019-04-14T03:33:32.543Z,41.18
2019-04-14T03:38:40.228Z,36.98
2019-04-14T03:40:52.322Z,33.15
2019-04-14T03:42:00.666Z,33.58
2019-04-14T03:44:10.053Z,36.93
2019-04-14T03:46:25.374Z,33.90
2019-04-14T03:47:34.730Z,33.58
2019-04-14T03:50:00.944Z,35.73
2019-04-14T03:50:55.579Z,35.30
2019-04-14T03:51:57.684Z,34.55
2019-04-14T03:53:19.133Z,35.23
2019-04-14T03:54:03.643Z,31.40
2019-04-14T03:55:10.110Z,34.25
2019-04-14T03:56:35.662Z,34.03
2019-04-14T03:57:41.961Z,33.33
2019-04-14T03:58:47.149Z,33.00
2019-04-14T03:59:52.326Z,38.73
2019-04-14T04:00:59.666Z,34.43
2019-04-14T04:02:05.360Z,34.92
2019-04-14T04:03:10.633Z,35.25
2019-04-14T04:04:16.192Z,33.05
2019-04-14T04:05:21.582Z,35.60
2019-04-14T04:06:27.074Z,33.38
2019-04-14T04:07:32.319Z,33.33
2019-04-14T04:08:37.706Z,35.75
2019-04-14T04:09:48.284Z,36.35
2019-04-14T04:10:53.777Z,33.85
2019-04-14T04:11:59.112Z,31.77
2019-04-14T04:13:04.205Z,33.45
2019-04-14T04:14:09.658Z,33.13
2019-04-14T04:15:15.026Z,33.55
2019-04-14T04:16:26.833Z,34.95
2019-04-14T04:17:49.867Z,33.98
2019-04-14T04:19:04.076Z,33.73
2019-04-14T04:20:21.713Z,38.38
2019-04-14T04:21:47.245Z,38.60
2019-04-14T04:23:03.383Z,33.85
2019-04-14T04:24:17.283Z,35.08
2019-04-14T04:25:37.761Z,38.63
2019-04-14T04:26:53.894Z,33.98
2019-04-14T04:28:16.776Z,33.92
2019-04-14T04:29:46.339Z,34.83
2019-04-14T04:31:11.006Z,34.78
2019-04-14T04:32:25.474Z,32.63
2019-04-14T04:34:01.684Z,35.05
2019-04-14T04:35:10.863Z,33.60
2019-04-14T04:36:22.512Z,33.13
2019-04-14T04:37:35.112Z,32.80
2019-04-14T04:39:06.020Z,33.15
2019-04-14T04:40:20.026Z,34.48
2019-04-14T04:41:25.446Z,35.03
2019-04-14T04:42:30.851Z,33.83
2019-04-14T04:43:36.534Z,35.20
2019-04-14T04:44:42.141Z,35.30
2019-04-14T04:45:47.481Z,34.92
2019-04-14T04:46:52.766Z,32.23
2019-04-14T04:47:58.078Z,34.90
2019-04-14T04:49:11.656Z,33.45
2019-04-14T04:50:10.768Z,35.83
2019-04-14T04:51:16.065Z,34.20
2019-04-14T04:52:21.322Z,33.35
2019-04-14T04:53:26.684Z,32.17
2019-04-14T04:54:32.182Z,34.73
2019-04-14T04:55:37.438Z,35.20
2019-04-14T04:56:42.731Z,35.55
2019-04-14T04:57:48.192Z,36.68
2019-04-14T04:58:54.345Z,33.75
2019-04-14T05:00:00.590Z,32.48
2019-04-14T05:01:07.712Z,37.33
2019-04-14T05:02:13.436Z,32.25
2019-04-14T05:03:18.996Z,35.17
2019-04-14T05:04:24.439Z,31.93
2019-04-14T05:06:06.546Z,31.60
2019-04-14T05:07:12.246Z,33.15
2019-04-14T05:08:17.459Z,34.03
2019-04-14T05:09:34.680Z,33.42
2019-04-14T05:10:44.112Z,30.35
2019-04-14T05:12:15.354Z,29.82
2019-04-14T05:13:24.899Z,33.10
2019-04-14T05:14:39.065Z,32.70
2019-04-14T05:15:51.210Z,32.13
2019-04-14T05:16:57.139Z,31.23
2019-04-14T05:18:02.758Z,34.18
2019-04-14T05:19:17.329Z,33.67
2019-04-14T05:20:15.991Z,32.60
2019-04-14T05:21:21.452Z,33.75
2019-04-14T05:22:26.823Z,34.00
2019-04-14T05:23:32.203Z,33.10
2019-04-14T05:24:37.534Z,32.90
2019-04-14T05:25:43.039Z,33.85
2019-04-14T05:26:48.556Z,29.40
2019-04-14T05:27:53.826Z,34.40
2019-04-14T05:29:01.302Z,34.78
2019-04-14T05:30:06.904Z,34.33
2019-04-14T05:31:12.191Z,31.73
2019-04-14T05:32:17.764Z,29.60
2019-04-14T05:33:23.026Z,33.02
2019-04-14T05:34:28.379Z,29.85
2019-04-14T05:35:33.734Z,35.55
2019-04-14T05:36:39.087Z,31.77
2019-04-14T05:37:46.472Z,33.75
2019-04-14T05:38:51.890Z,28.98
2019-04-14T05:39:57.179Z,30.90
2019-04-14T05:41:02.779Z,32.85
2019-04-14T05:42:16.278Z,32.38
2019-04-14T05:43:28.158Z,30.80
2019-04-14T05:44:23.142Z,28.47
2019-04-14T05:45:28.557Z,28.00
2019-04-14T05:46:33.946Z,29.90
2019-04-14T05:47:41.384Z,30.52
2019-04-14T05:48:47.124Z,30.00
2019-04-14T05:49:54.990Z,27.60
2019-04-14T05:50:59.853Z,33.10
2019-04-14T05:52:05.598Z,29.20
2019-04-14T05:53:11.043Z,29.52
2019-04-14T05:54:16.389Z,30.90
2019-04-14T05:55:22.532Z,28.15
2019-04-14T05:56:27.727Z,31.65
2019-04-14T05:57:32.931Z,28.60
2019-04-14T05:58:38.313Z,26.80
2019-04-14T05:59:44.075Z,29.13
2019-04-14T06:00:51.361Z,29.05
2019-04-14T06:01:56.959Z,27.70
2019-04-14T06:03:02.251Z,27.50
2019-04-14T06:04:07.340Z,27.75
2019-04-14T06:05:13.018Z,26.23
2019-04-14T06:06:18.622Z,28.57
2019-04-14T06:07:23.763Z,27.65
2019-04-14T06:08:29.064Z,26.33
2019-04-14T06:09:34.239Z,27.03
2019-04-14T06:10:39.351Z,28.77
2019-04-14T06:11:44.422Z,27.47
2019-04-14T06:12:50.836Z,26.07
2019-04-14T06:13:55.906Z,30.23
2019-04-14T06:15:01.131Z,26.33
2019-04-14T06:16:06.245Z,23.93
2019-04-14T06:17:11.391Z,23.50
2019-04-14T06:18:16.468Z,24.87
2019-04-14T06:19:21.617Z,27.83
2019-04-14T06:20:26.791Z,25.37
2019-04-14T06:21:31.971Z,24.37
2019-04-14T06:22:37.063Z,24.53
2019-04-14T06:23:42.173Z,28.38
2019-04-14T06:24:47.394Z,26.93
2019-04-14T06:25:52.701Z,25.23
2019-04-14T06:26:57.919Z,26.05
2019-04-14T06:28:03.059Z,27.97
2019-04-14T06:29:08.134Z,25.80
2019-04-14T06:30:41.235Z,24.30
2019-04-14T06:32:02.056Z,25.67
2019-04-14T06:33:16.441Z,24.53
2019-04-14T06:34:29.334Z,24.77
2019-04-14T06:35:53.570Z,28.30
2019-04-14T06:37:04.643Z,27.10
2019-04-14T06:38:13.065Z,26.00
2019-04-14T06:39:26.823Z,21.00
2019-04-14T06:40:36.427Z,24.00
2019-04-14T06:41:41.502Z,23.70
2019-04-14T06:42:46.712Z,27.00
2019-04-14T06:43:51.782Z,22.53
2019-04-14T06:44:56.934Z,22.37
2019-04-14T06:46:02.018Z,25.37
2019-04-14T06:47:07.065Z,22.80
2019-04-14T06:48:12.159Z,24.20
2019-04-14T06:49:17.415Z,23.07
2019-04-14T06:50:22.481Z,21.20
2019-04-14T06:51:27.677Z,24.13
2019-04-14T06:52:32.814Z,25.10
2019-04-14T06:53:37.907Z,36.60
2019-04-14T06:54:42.971Z,23.40
2019-04-14T06:55:48.121Z,22.77
2019-04-14T06:56:53.217Z,27.00
2019-04-14T06:57:58.312Z,20.23
2019-04-14T06:59:04.652Z,23.67
2019-04-14T07:00:09.945Z,21.63
2019-04-14T07:01:15.136Z,24.10
2019-04-14T07:02:20.267Z,25.63
2019-04-14T07:03:25.400Z,23.07
2019-04-14T07:04:30.536Z,22.83
2019-04-14T07:05:35.675Z,20.73
2019-04-14T07:06:40.899Z,22.37
2019-04-14T07:07:56.553Z,23.07
2019-04-14T07:08:52.811Z,23.63
2019-04-14T07:09:57.989Z,22.60
2019-04-14T07:11:04.092Z,19.97
2019-04-14T07:12:09.358Z,23.20
2019-04-14T07:13:14.573Z,20.87
2019-04-14T07:14:19.792Z,22.27
2019-04-14T07:15:26.077Z,21.60
2019-04-14T07:16:31.219Z,22.23
2019-04-14T07:17:36.589Z,22.97
2019-04-14T07:18:41.777Z,23.83
2019-04-14T07:19:46.973Z,22.70
2019-04-14T07:20:52.211Z,21.93
2019-04-14T07:21:57.301Z,22.47
2019-04-14T07:23:02.571Z,20.53
2019-04-14T07:24:08.867Z,21.27
2019-04-14T07:25:14.136Z,22.23
2019-04-14T07:26:19.334Z,22.57
2019-04-14T07:27:24.551Z,22.07
2019-04-14T07:28:29.739Z,22.13
2019-04-14T07:29:40.456Z,22.67
2019-04-14T07:31:03.854Z,23.03
2019-04-14T07:32:27.991Z,20.80
2019-04-14T07:34:11.793Z,24.03
2019-04-14T07:35:36.241Z,25.77
2019-04-14T07:37:03.161Z,24.20
2019-04-14T07:38:16.325Z,21.90
2019-04-14T07:39:37.651Z,21.83
2019-04-14T07:40:51.967Z,22.27
2019-04-14T07:42:16.048Z,22.73
2019-04-14T07:43:43.154Z,21.60
2019-04-14T07:45:06.268Z,22.93
2019-04-14T07:46:29.375Z,23.20
2019-04-14T07:47:48.592Z,20.87
2019-04-14T07:49:02.951Z,22.40
2019-04-14T07:50:23.769Z,22.57
2019-04-14T07:51:46.680Z,22.00
2019-04-14T07:53:10.946Z,22.00
2019-04-14T07:54:33.896Z,22.40
2019-04-14T07:55:52.806Z,21.90
2019-04-14T07:57:05.294Z,22.17
2019-04-14T07:58:38.594Z,21.40
2019-04-14T08:00:00.658Z,21.53
2019-04-14T08:01:14.753Z,22.47
2019-04-14T08:02:48.050Z,20.53
2019-04-14T08:04:07.200Z,19.80
2019-04-14T08:05:16.097Z,23.53
2019-04-14T08:06:21.364Z,21.97
2019-04-14T08:07:26.943Z,21.37
2019-04-14T08:08:32.070Z,21.33
2019-04-14T08:09:37.261Z,20.90
2019-04-14T08:10:42.428Z,19.83
2019-04-14T08:11:47.536Z,22.23
2019-04-14T08:12:52.794Z,20.07
2019-04-14T08:13:58.028Z,22.07
2019-04-14T08:15:03.185Z,21.97
2019-04-14T08:16:08.834Z,18.43
2019-04-14T08:17:15.268Z,19.60
2019-04-14T08:18:20.419Z,21.33
2019-04-14T08:19:25.536Z,22.33
2019-04-14T08:20:30.669Z,21.60
2019-04-14T08:21:37.781Z,24.53
2019-04-14T08:22:45.918Z,17.90
2019-04-14T08:23:51.238Z,20.53
2019-04-14T08:24:56.491Z,19.40
2019-04-14T08:26:07.259Z,21.50
2019-04-14T08:27:12.487Z,19.20
2019-04-14T08:28:17.744Z,21.20
2019-04-14T08:29:23.340Z,22.77
2019-04-14T08:30:28.683Z,22.73
2019-04-14T08:31:33.967Z,21.57
2019-04-14T08:32:39.146Z,19.53
2019-04-14T08:33:44.775Z,20.13
2019-04-14T08:34:50.066Z,20.17
2019-04-14T08:35:55.244Z,18.77
2019-04-14T08:37:00.357Z,18.37
2019-04-14T08:38:06.271Z,21.33
2019-04-14T08:39:11.551Z,19.07
2019-04-14T08:40:16.815Z,18.93
2019-04-14T08:41:25.302Z,19.03
2019-04-14T08:42:38.727Z,18.60
2019-04-14T08:44:02.975Z,18.43
2019-04-14T08:45:23.086Z,19.77
2019-04-14T08:46:44.062Z,16.03
2019-04-14T08:48:12.572Z,18.27
2019-04-14T08:49:42.988Z,18.47
2019-04-14T08:51:02.654Z,16.43
2019-04-14T08:52:25.942Z,20.17
2019-04-14T08:53:40.991Z,17.97
2019-04-14T08:55:00.282Z,18.87
2019-04-14T08:56:18.296Z,20.33
2019-04-14T08:57:34.615Z,17.27
2019-04-14T08:59:02.111Z,16.57
2019-04-14T09:00:18.309Z,15.17
2019-04-14T09:02:00.770Z,19.47
2019-04-14T09:03:34.381Z,19.63
2019-04-14T09:04:51.897Z,18.13
2019-04-14T09:06:05.084Z,19.33
2019-04-14T09:07:21.060Z,20.50
2019-04-14T09:08:41.389Z,18.47
2019-04-14T09:09:50.595Z,17.53
2019-04-14T09:10:58.863Z,18.67
2019-04-14T09:12:15.897Z,16.17
2019-04-14T09:13:19.127Z,20.00
2019-04-14T09:14:27.518Z,18.80
2019-04-14T09:15:32.882Z,19.07
2019-04-14T09:16:38.218Z,20.87
2019-04-14T09:17:44.138Z,21.80
2019-04-14T09:18:49.471Z,18.60
2019-04-14T09:19:55.120Z,22.87
2019-04-14T09:21:02.892Z,18.57
2019-04-14T09:22:08.399Z,21.77
2019-04-14T09:23:13.735Z,22.57
2019-04-14T09:24:19.341Z,19.80
2019-04-14T09:25:25.722Z,19.90
2019-04-14T09:26:30.995Z,20.57
2019-04-14T09:27:36.675Z,17.90
2019-04-14T09:28:41.755Z,17.43
2019-04-14T09:29:46.967Z,19.50
2019-04-14T09:30:52.236Z,16.80
2019-04-14T09:31:57.378Z,16.97
2019-04-14T09:33:03.712Z,17.27
2019-04-14T09:34:08.947Z,17.30
2019-04-14T09:35:14.400Z,16.17
2019-04-14T09:36:19.515Z,16.47
2019-04-14T09:37:24.848Z,20.03
2019-04-14T09:38:29.955Z,18.33
2019-04-14T09:39:35.493Z,17.87
2019-04-14T09:40:40.977Z,18.13
2019-04-14T09:41:49.366Z,16.90
2019-04-14T09:42:59.035Z,18.33
2019-04-14T09:44:04.680Z,18.07
2019-04-14T09:45:09.959Z,17.70
2019-04-14T09:46:17.258Z,17.77
2019-04-14T09:47:22.613Z,17.33
2019-04-14T09:48:29.796Z,18.83
2019-04-14T09:49:39.759Z,19.83
2019-04-14T09:50:45.047Z,17.07
2019-04-14T09:51:54.748Z,19.80
2019-04-14T09:53:01.339Z,16.97
2019-04-14T09:54:06.534Z,16.53
2019-04-14T09:55:11.790Z,18.50
2019-04-14T09:56:19.815Z,16.60
2019-04-14T09:57:25.086Z,17.90
2019-04-14T09:58:31.750Z,16.50
2019-04-14T09:59:41.687Z,20.73
2019-04-14T10:00:47.011Z,15.63
2019-04-14T10:01:52.338Z,17.50
2019-04-14T10:02:57.718Z,15.33
2019-04-14T10:04:02.945Z,16.30
2019-04-14T10:05:11.572Z,19.27
2019-04-14T10:06:17.525Z,20.53
2019-04-14T10:07:22.783Z,18.63
2019-04-14T10:08:28.058Z,17.07
2019-04-14T10:09:33.354Z,15.53
2019-04-14T10:10:38.918Z,16.90
2019-04-14T10:11:48.944Z,18.97
2019-04-14T10:12:51.847Z,17.87
2019-04-14T10:13:57.106Z,17.87
2019-04-14T10:15:02.417Z,18.70
2019-04-14T10:16:07.738Z,17.00
2019-04-14T10:17:13.163Z,19.43
2019-04-14T10:18:18.450Z,18.63
2019-04-14T10:19:26.462Z,21.40
2019-04-14T10:20:33.896Z,19.07
2019-04-14T10:21:39.321Z,20.07
2019-04-14T10:22:45.515Z,19.23
2019-04-14T10:23:53.811Z,16.63
2019-04-14T10:24:59.269Z,17.87
2019-04-14T10:26:04.423Z,20.13
2019-04-14T10:27:12.863Z,17.23
2019-04-14T10:28:19.315Z,20.17
2019-04-14T10:29:26.143Z,17.83
2019-04-14T10:30:32.841Z,21.77
2019-04-14T10:31:38.130Z,18.23
2019-04-14T10:32:43.594Z,21.83
2019-04-14T10:33:48.846Z,20.97
2019-04-14T10:34:53.936Z,19.60
2019-04-14T10:35:59.394Z,20.83
2019-04-14T10:37:04.556Z,19.00
2019-04-14T10:38:12.521Z,21.83
2019-04-14T10:39:18.884Z,23.33
2019-04-14T10:40:23.984Z,23.03
2019-04-14T10:41:30.570Z,21.07
2019-04-14T10:42:35.607Z,20.10
2019-04-14T10:43:40.888Z,19.93
2019-04-14T10:44:46.128Z,19.87
2019-04-14T10:45:51.362Z,19.67
2019-04-14T10:46:56.483Z,18.77
2019-04-14T10:48:01.675Z,20.23
2019-04-14T10:49:06.771Z,17.50
2019-04-14T10:50:12.123Z,19.53
2019-04-14T10:51:29.154Z,19.70
2019-04-14T10:52:24.098Z,20.47
2019-04-14T10:53:29.280Z,21.50
2019-04-14T10:54:34.496Z,20.43
2019-04-14T10:55:39.673Z,26.30
2019-04-14T10:56:44.875Z,22.80
2019-04-14T10:57:49.985Z,22.80
2019-04-14T10:58:55.229Z,22.03
2019-04-14T11:00:00.551Z,19.03
2019-04-14T11:01:07.442Z,21.83
2019-04-14T11:02:12.693Z,18.93
2019-04-14T11:03:18.040Z,24.00
2019-04-14T11:04:23.314Z,22.47
2019-04-14T11:05:32.149Z,22.70
2019-04-14T11:06:40.807Z,21.53
2019-04-14T11:07:46.158Z,20.50
2019-04-14T11:08:51.375Z,19.07
2019-04-14T11:09:56.882Z,24.13
2019-04-14T11:11:02.146Z,24.00
2019-04-14T11:12:07.752Z,20.47
2019-04-14T11:13:12.923Z,21.47
2019-04-14T11:14:18.119Z,24.70
2019-04-14T11:15:23.306Z,22.33
2019-04-14T11:16:28.397Z,21.50
2019-04-14T11:17:33.629Z,22.50
2019-04-14T11:18:38.773Z,20.00
2019-04-14T11:19:43.931Z,19.97
2019-04-14T11:20:49.141Z,20.07
2019-04-14T11:21:54.210Z,23.63
2019-04-14T11:23:03.597Z,19.90
2019-04-14T11:24:06.387Z,24.67
2019-04-14T11:25:11.442Z,18.63
2019-04-14T11:26:16.616Z,22.33
2019-04-14T11:27:21.888Z,19.77
2019-04-14T11:28:26.962Z,20.43
2019-04-14T11:29:32.084Z,19.80
2019-04-14T11:30:37.314Z,22.63
2019-04-14T11:32:07.247Z,18.00
2019-04-14T11:33:34.394Z,23.27
2019-04-14T11:34:48.555Z,22.50
2019-04-14T11:35:58.881Z,21.90
2019-04-14T11:37:26.271Z,23.33
2019-04-14T11:38:37.427Z,22.00
2019-04-14T11:39:44.195Z,19.80
2019-04-14T11:40:52.883Z,20.90
2019-04-14T11:41:58.054Z,19.10
2019-04-14T11:43:03.148Z,18.87
2019-04-14T11:44:08.443Z,21.67
2019-04-14T11:45:13.700Z,19.37
2019-04-14T11:46:18.898Z,19.57
2019-04-14T11:47:24.038Z,20.50
2019-04-14T11:48:29.279Z,25.87
2019-04-14T11:49:34.642Z,20.10
2019-04-14T11:50:39.791Z,21.83
2019-04-14T11:51:54.734Z,21.07
2019-04-14T11:52:51.792Z,20.30
2019-04-14T11:53:57.045Z,22.97
2019-04-14T11:55:02.218Z,18.30
2019-04-14T11:56:08.747Z,20.60
2019-04-14T11:57:13.873Z,18.93
2019-04-14T11:58:18.947Z,18.87
2019-04-14T11:59:33.954Z,20.07
2019-04-14T12:01:10.482Z,17.40
2019-04-14T12:02:20.732Z,19.53
2019-04-14T12:03:34.789Z,20.17
2019-04-14T12:05:00.528Z,19.93
2019-04-14T12:06:33.682Z,19.00
2019-04-14T12:07:59.583Z,16.03
2019-04-14T12:09:15.167Z,18.47
2019-04-14T12:10:24.481Z,19.70
2019-04-14T12:11:29.676Z,17.70
2019-04-14T12:12:34.919Z,17.80
2019-04-14T12:13:40.047Z,24.50
2019-04-14T12:14:45.161Z,20.90
2019-04-14T12:15:50.318Z,19.37
2019-04-14T12:16:55.944Z,17.93
2019-04-14T12:18:01.112Z,18.83
2019-04-14T12:19:06.226Z,16.87
2019-04-14T12:20:12.048Z,18.77
2019-04-14T12:21:17.126Z,19.37
2019-04-14T12:22:22.343Z,18.40
2019-04-14T12:23:27.445Z,23.03
2019-04-14T12:24:32.602Z,19.43
2019-04-14T12:25:37.743Z,17.53
2019-04-14T12:26:42.983Z,18.63
2019-04-14T12:27:48.901Z,18.17
2019-04-14T12:28:55.860Z,22.50
2019-04-14T12:30:01.093Z,19.87
2019-04-14T12:31:06.711Z,15.97
2019-04-14T12:32:12.846Z,18.90
2019-04-14T12:33:18.097Z,17.20
2019-04-14T12:34:23.224Z,19.80
2019-04-14T12:35:28.343Z,19.27
2019-04-14T12:36:33.492Z,18.77
2019-04-14T12:37:38.761Z,18.57
2019-04-14T12:38:43.946Z,20.87
2019-04-14T12:39:49.452Z,21.87
2019-04-14T12:40:57.173Z,21.33
2019-04-14T12:42:26.645Z,18.07
2019-04-14T12:43:41.475Z,17.97
2019-04-14T12:45:01.122Z,19.57
2019-04-14T12:46:24.325Z,20.70
2019-04-14T12:47:57.301Z,18.43
2019-04-14T12:49:07.799Z,17.27
2019-04-14T12:50:19.335Z,18.43
2019-04-14T12:51:28.797Z,18.17
2019-04-14T12:52:33.921Z,18.83
2019-04-14T12:53:39.096Z,18.70
2019-04-14T12:54:44.404Z,20.07
2019-04-14T12:55:49.624Z,19.93
2019-04-14T12:56:54.797Z,20.90
2019-04-14T12:58:02.084Z,17.00
2019-04-14T12:59:26.392Z,16.77
2019-04-14T13:01:02.622Z,20.53
2019-04-14T13:02:32.594Z,18.30
2019-04-14T13:03:41.884Z,16.43
2019-04-14T13:04:46.672Z,17.30
2019-04-14T13:05:51.847Z,16.60
2019-04-14T13:06:56.954Z,19.60
2019-04-14T13:08:02.108Z,17.63
2019-04-14T13:09:07.616Z,16.27
2019-04-14T13:10:14.874Z,19.87
2019-04-14T13:11:20.022Z,18.13
2019-04-14T13:12:25.254Z,18.13
2019-04-14T13:13:30.555Z,17.83
2019-04-14T13:14:35.710Z,19.23
2019-04-14T13:15:40.864Z,18.23
2019-04-14T13:16:46.091Z,19.13
2019-04-14T13:17:51.283Z,19.07
2019-04-14T13:18:56.419Z,18.87
2019-04-14T13:20:01.517Z,17.00
2019-04-14T13:21:06.796Z,19.47
2019-04-14T13:22:11.939Z,18.53
2019-04-14T13:23:17.056Z,19.57
2019-04-14T13:24:22.241Z,18.00
2019-04-14T13:25:27.365Z,22.20
2019-04-14T13:26:32.663Z,20.57
2019-04-14T13:27:37.843Z,18.80
2019-04-14T13:28:42.985Z,19.03
2019-04-14T13:29:48.308Z,17.90
2019-04-14T13:30:53.994Z,17.80
2019-04-14T13:31:59.060Z,22.83
2019-04-14T13:33:04.296Z,22.40
2019-04-14T13:34:09.384Z,18.53
2019-04-14T13:35:14.623Z,24.47
2019-04-14T13:36:19.921Z,23.47
2019-04-14T13:37:25.054Z,20.73
2019-04-14T13:38:30.231Z,21.30
2019-04-14T13:39:35.313Z,19.43
2019-04-14T13:40:41.641Z,19.30
2019-04-14T13:41:46.950Z,21.00
2019-04-14T13:42:52.183Z,18.43
2019-04-14T13:43:57.343Z,18.67
2019-04-14T13:45:02.567Z,20.07
2019-04-14T13:46:08.886Z,19.07
2019-04-14T13:47:14.025Z,20.43
2019-04-14T13:48:19.301Z,20.43
2019-04-14T13:49:24.410Z,23.63
2019-04-14T13:50:29.597Z,22.37
2019-04-14T13:51:34.792Z,21.40
2019-04-14T13:52:46.623Z,21.67
2019-04-14T13:53:47.669Z,21.00
2019-04-14T13:54:55.976Z,18.73
2019-04-14T13:56:01.238Z,21.20
2019-04-14T13:57:06.442Z,18.27
2019-04-14T13:58:11.641Z,19.33
2019-04-14T13:59:16.835Z,19.60
2019-04-14T14:00:24.102Z,18.47
2019-04-14T14:01:29.738Z,20.20
2019-04-14T14:02:37.813Z,18.90
2019-04-14T14:03:45.087Z,21.23
2019-04-14T14:04:50.226Z,19.20
2019-04-14T14:05:58.401Z,21.90
2019-04-14T14:07:04.242Z,19.43
2019-04-14T14:08:09.377Z,21.67
2019-04-14T14:09:14.864Z,19.57
2019-04-14T14:10:20.082Z,22.80
2019-04-14T14:11:50.243Z,18.80
2019-04-14T14:13:23.685Z,18.43
2019-04-14T14:14:53.940Z,16.77
2019-04-14T14:16:16.725Z,18.57
2019-04-14T14:17:28.579Z,16.90
2019-04-14T14:18:38.527Z,17.37
2019-04-14T14:19:56.457Z,19.20
2019-04-14T14:21:23.811Z,18.27
2019-04-14T14:22:59.280Z,17.70
2019-04-14T14:24:23.576Z,19.87
2019-04-14T14:25:35.921Z,19.70
2019-04-14T14:26:50.547Z,18.53
2019-04-14T14:27:55.844Z,16.80
2019-04-14T14:29:01.099Z,18.87
2019-04-14T14:30:06.601Z,16.63
2019-04-14T14:31:11.829Z,21.37
2019-04-14T14:32:23.699Z,17.00
2019-04-14T14:33:28.878Z,17.10
2019-04-14T14:34:34.146Z,19.70
2019-04-14T14:35:39.304Z,18.83
2019-04-14T14:36:44.529Z,20.30
2019-04-14T14:37:49.753Z,21.53
2019-04-14T14:38:55.007Z,18.33
2019-04-14T14:40:00.059Z,22.97
2019-04-14T14:41:06.845Z,18.13
2019-04-14T14:42:11.993Z,19.73
2019-04-14T14:43:17.178Z,18.70
2019-04-14T14:44:23.999Z,19.10
2019-04-14T14:45:57.096Z,17.70
2019-04-14T14:47:07.601Z,16.17
2019-04-14T14:48:19.751Z,19.23
2019-04-14T14:49:33.493Z,17.47
2019-04-14T14:50:44.880Z,19.80
2019-04-14T14:51:52.462Z,17.30
2019-04-14T14:52:57.562Z,16.53
2019-04-14T14:54:02.695Z,19.30
2019-04-14T14:55:07.934Z,18.47
2019-04-14T14:56:13.110Z,17.97
2019-04-14T14:57:18.397Z,16.13
2019-04-14T14:58:23.699Z,16.23
2019-04-14T14:59:28.963Z,16.83
2019-04-14T15:00:34.784Z,16.63